Terminal Aerodrome Forecast
Issued by NWS

Home | Current Version | Previous Version | Text Only | Print | Product List | Glossary On
Versions: 1 2 3 4 5 6 7 8 9 10 11 12 13
000
FTUS41 KAKQ 301100
TAFPHF
TAF
KPHF 301120Z 3012/3112 36006KT P6SM SCT050
     FM301400 01007KT P6SM SCT060
     FM302000 VRB05KT P6SM FEW060=

USA.gov is the U.S. government's official web portal to all federal, state and local government web resources and services.